sensor_id;sensor_type;location;lat;lon;timestamp;pressure;altitude;pressure_sealevel;temperature;humidity
20696;BME280;10507;52.754;13.040;2023-01-28T00:00:56;101761.84;;;-1.59;100.00
20696;BME280;10507;52.754;13.040;2023-01-28T00:03:24;101809.97;;;-1.54;100.00
20696;BME280;10507;52.754;13.040;2023-01-28T00:06:00;101815.31;;;-1.50;100.00
20696;BME280;10507;52.754;13.040;2023-01-28T00:08:29;101818.88;;;-1.44;100.00
20696;BME280;10507;52.754;13.040;2023-01-28T00:10:58;101821.53;;;-1.41;100.00
20696;BME280;10507;52.754;13.040;2023-01-28T00:13:26;101827.78;;;-1.35;100.00
20696;BME280;10507;52.754;13.040;2023-01-28T00:15:54;101826.97;;;-1.32;100.00
20696;BME280;10507;52.754;13.040;2023-01-28T00:18:23;101830.59;;;-1.24;100.00
20696;BME280;10507;52.754;13.040;2023-01-28T00:20:57;101829.81;;;-1.18;100.00
20696;BME280;10507;52.754;13.040;2023-01-28T00:23:25;101806.25;;;-1.18;100.00
20696;BME280;10507;52.754;13.040;2023-01-28T00:25:57;101816.75;;;-1.15;100.00
20696;BME280;10507;52.754;13.040;2023-01-28T00:28:25;101768.63;;;-1.22;100.00
20696;BME280;10507;52.754;13.040;2023-01-28T00:30:53;101786.09;;;-1.22;100.00
20696;BME280;10507;52.754;13.040;2023-01-28T00:33:21;101814.16;;;-1.15;100.00
20696;BME280;10507;52.754;13.040;2023-01-28T00:35:57;101815.97;;;-1.11;100.00
20696;BME280;10507;52.754;13.040;2023-01-28T00:38:26;101794.13;;;-1.12;100.00
20696;BME280;10507;52.754;13.040;2023-01-28T00:40:54;101784.53;;;-1.11;100.00
20696;BME280;10507;52.754;13.040;2023-01-28T00:43:22;101816.94;;;-1.05;100.00
20696;BME280;10507;52.754;13.040;2023-01-28T00:45:51;101811.88;;;-0.94;100.00
20696;BME280;10507;52.754;13.040;2023-01-28T00:48:19;101825.03;;;-0.91;100.00
20696;BME280;10507;52.754;13.040;2023-01-28T00:50:47;101829.47;;;-0.87;100.00
20696;BME280;10507;52.754;13.040;2023-01-28T00:53:17;101849.63;;;-0.82;100.00
20696;BME280;10507;52.754;13.040;2023-01-28T00:55:45;101802.44;;;-0.82;100.00
20696;BME280;10507;52.754;13.040;2023-01-28T00:58:12;101771.16;;;-0.70;100.00
20696;BME280;10507;52.754;13.040;2023-01-28T01:00:40;101746.84;;;-0.60;100.00
20696;BME280;10507;52.754;13.040;2023-01-28T01:03:08;101701.44;;;-0.56;100.00
20696;BME280;10507;52.754;13.040;2023-01-28T01:05:36;101670.91;;;-0.48;100.00
20696;BME280;10507;52.754;13.040;2023-01-28T01:08:04;101654.44;;;-0.37;99.93
20696;BME280;10507;52.754;13.040;2023-01-28T01:10:34;101615.97;;;-0.35;98.97
20696;BME280;10507;52.754;13.040;2023-01-28T01:13:02;101588.94;;;-0.25;98.51
20696;BME280;10507;52.754;13.040;2023-01-28T01:15:30;101539.97;;;-0.26;98.41
20696;BME280;10507;52.754;13.040;2023-01-28T01:17:58;101532.97;;;-0.23;98.94
20696;BME280;10507;52.754;13.040;2023-01-28T01:20:28;101452.47;;;-0.31;97.88
20696;BME280;10507;52.754;13.040;2023-01-28T01:22:59;101460.34;;;-0.31;97.81
20696;BME280;10507;52.754;13.040;2023-01-28T01:25:27;101456.84;;;-0.27;96.71
20696;BME280;10507;52.754;13.040;2023-01-28T01:27:56;101455.16;;;-0.21;96.36
20696;BME280;10507;52.754;13.040;2023-01-28T01:30:24;101446.47;;;-0.15;96.62
20696;BME280;10507;52.754;13.040;2023-01-28T01:32:53;101418.44;;;-0.19;96.88
20696;BME280;10507;52.754;13.040;2023-01-28T01:35:21;101419.28;;;-0.23;97.61
20696;BME280;10507;52.754;13.040;2023-01-28T01:37:49;101484.94;;;-0.17;97.55
20696;BME280;10507;52.754;13.040;2023-01-28T01:40:17;101461.34;;;-0.15;97.51
20696;BME280;10507;52.754;13.040;2023-01-28T01:42:44;101458.75;;;-0.11;96.73
20696;BME280;10507;52.754;13.040;2023-01-28T01:45:14;101447.38;;;-0.05;96.44
20696;BME280;10507;52.754;13.040;2023-01-28T01:47:45;101421.16;;;-0.07;96.35
20696;BME280;10507;52.754;13.040;2023-01-28T01:50:19;101400.16;;;-0.01;95.71
20696;BME280;10507;52.754;13.040;2023-01-28T01:52:51;101368.69;;;0.03;95.65
20696;BME280;10507;52.754;13.040;2023-01-28T01:55:21;101347.69;;;0.04;94.92
20696;BME280;10507;52.754;13.040;2023-01-28T01:57:51;101313.56;;;0.04;95.05
20696;BME280;10507;52.754;13.040;2023-01-28T02:00:23;101310.06;;;0.07;94.36
20696;BME280;10507;52.754;13.040;2023-01-28T02:02:51;101267.22;;;0.09;93.64
20696;BME280;10507;52.754;13.040;2023-01-28T02:05:21;101259.34;;;0.14;93.21
20696;BME280;10507;52.754;13.040;2023-01-28T02:07:51;101212.09;;;0.14;93.37
20696;BME280;10507;52.754;13.040;2023-01-28T02:10:41;101210.34;;;0.14;92.66
20696;BME280;10507;52.754;13.040;2023-01-28T02:13:10;101178.84;;;0.14;92.41
20696;BME280;10507;52.754;13.040;2023-01-28T02:15:43;101140.31;;;0.18;91.91
20696;BME280;10507;52.754;13.040;2023-01-28T02:18:14;101122.81;;;0.22;91.30
20696;BME280;10507;52.754;13.040;2023-01-28T02:20:55;101073.81;;;0.28;90.42
20696;BME280;10507;52.754;13.040;2023-01-28T02:23:41;101007.25;;;0.40;89.50
20696;BME280;10507;52.754;13.040;2023-01-28T02:26:36;100932.81;;;0.46;88.87
20696;BME280;10507;52.754;13.040;2023-01-28T02:29:15;100888.16;;;0.46;88.56
20696;BME280;10507;52.754;13.040;2023-01-28T02:31:50;100896.91;;;0.52;87.64
20696;BME280;10507;52.754;13.040;2023-01-28T02:34:25;100867.09;;;0.55;88.02
20696;BME280;10507;52.754;13.040;2023-01-28T02:37:02;100856.56;;;0.58;87.19
20696;BME280;10507;52.754;13.040;2023-01-28T02:39:35;100847.81;;;0.57;87.50
20696;BME280;10507;52.754;13.040;2023-01-28T02:42:07;100869.72;;;0.56;88.41
20696;BME280;10507;52.754;13.040;2023-01-28T02:44:37;100945.91;;;0.55;88.60
20696;BME280;10507;52.754;13.040;2023-01-28T02:47:09;100986.19;;;0.54;88.71
20696;BME280;10507;52.754;13.040;2023-01-28T02:49:56;101078.13;;;0.55;90.48
20696;BME280;10507;52.754;13.040;2023-01-28T02:52:33;101195.50;;;0.56;91.54
20696;BME280;10507;52.754;13.040;2023-01-28T02:55:28;101171.84;;;0.56;91.15
20696;BME280;10507;52.754;13.040;2023-01-28T02:58:01;101197.22;;;0.60;91.45
20696;BME280;10507;52.754;13.040;2023-01-28T03:00:42;101231.41;;;0.59;92.07
20696;BME280;10507;52.754;13.040;2023-01-28T03:03:14;101298.84;;;0.61;93.41
20696;BME280;10507;52.754;13.040;2023-01-28T03:05:50;101349.63;;;0.59;93.62
20696;BME280;10507;52.754;13.040;2023-01-28T03:08:35;101375.00;;;0.55;93.60
20696;BME280;10507;52.754;13.040;2023-01-28T03:11:22;101394.28;;;0.56;94.91
20696;BME280;10507;52.754;13.040;2023-01-28T03:14:08;101420.53;;;0.53;94.85
20696;BME280;10507;52.754;13.040;2023-01-28T03:16:57;101445.94;;;0.54;95.59
20696;BME280;10507;52.754;13.040;2023-01-28T03:19:46;101419.66;;;0.49;95.23
20696;BME280;10507;52.754;13.040;2023-01-28T03:22:36;101380.25;;;0.48;94.51
20696;BME280;10507;52.754;13.040;2023-01-28T03:25:25;101412.66;;;0.45;95.50
20696;BME280;10507;52.754;13.040;2023-01-28T03:28:15;101457.28;;;0.44;95.89
20696;BME280;10507;52.754;13.040;2023-01-28T03:31:05;101454.66;;;0.40;95.60
20696;BME280;10507;52.754;13.040;2023-01-28T03:33:54;101472.19;;;0.48;96.02
20696;BME280;10507;52.754;13.040;2023-01-28T03:36:42;101423.16;;;0.45;95.71
20696;BME280;10507;52.754;13.040;2023-01-28T03:39:18;101324.16;;;0.23;95.15
20696;BME280;10507;52.754;13.040;2023-01-28T03:41:57;101402.03;;;0.22;96.19
20696;BME280;10507;52.754;13.040;2023-01-28T03:44:26;101458.94;;;0.23;96.70
20696;BME280;10507;52.754;13.040;2023-01-28T03:47:12;101510.59;;;0.26;96.94
20696;BME280;10507;52.754;13.040;2023-01-28T03:49:42;101520.25;;;0.28;97.01
20696;BME280;10507;52.754;13.040;2023-01-28T03:52:11;101431.03;;;0.40;94.65
20696;BME280;10507;52.754;13.040;2023-01-28T03:54:39;101367.97;;;0.42;95.01
20696;BME280;10507;52.754;13.040;2023-01-28T03:57:07;101344.31;;;0.42;94.67
20696;BME280;10507;52.754;13.040;2023-01-28T03:59:35;101254.16;;;0.38;93.84
20696;BME280;10507;52.754;13.040;2023-01-28T04:02:03;101184.09;;;0.44;92.13
20696;BME280;10507;52.754;13.040;2023-01-28T04:04:31;101165.72;;;0.42;92.53
20696;BME280;10507;52.754;13.040;2023-01-28T04:07:01;101106.16;;;0.53;90.50
20696;BME280;10507;52.754;13.040;2023-01-28T04:09:28;100966.06;;;0.51;90.30
20696;BME280;10507;52.754;13.040;2023-01-28T04:11:56;101008.06;;;0.57;89.61
20696;BME280;10507;52.754;13.040;2023-01-28T04:14:25;100982.66;;;0.58;89.77
20696;BME280;10507;52.754;13.040;2023-01-28T04:16:53;100962.53;;;0.63;89.40
20696;BME280;10507;52.754;13.040;2023-01-28T04:19:21;100916.13;;;0.59;88.92
20696;BME280;10507;52.754;13.040;2023-01-28T04:21:49;100891.56;;;0.65;88.14
20696;BME280;10507;52.754;13.040;2023-01-28T04:24:21;100820.66;;;0.63;88.32
20696;BME280;10507;52.754;13.040;2023-01-28T04:26:50;100798.84;;;0.52;89.03
20696;BME280;10507;52.754;13.040;2023-01-28T04:29:21;100856.66;;;0.46;89.37
20696;BME280;10507;52.754;13.040;2023-01-28T04:31:49;100912.69;;;0.48;89.64
20696;BME280;10507;52.754;13.040;2023-01-28T04:34:17;100967.81;;;0.52;90.44
20696;BME280;10507;52.754;13.040;2023-01-28T04:36:46;101055.38;;;0.54;90.82
20696;BME280;10507;52.754;13.040;2023-01-28T04:39:14;101151.72;;;0.58;91.92
20696;BME280;10507;52.754;13.040;2023-01-28T04:41:44;101154.31;;;0.55;92.13
20696;BME280;10507;52.754;13.040;2023-01-28T04:44:13;101234.91;;;0.55;92.79
20696;BME280;10507;52.754;13.040;2023-01-28T04:46:42;101202.50;;;0.44;92.41
20696;BME280;10507;52.754;13.040;2023-01-28T04:49:10;101175.34;;;0.45;91.91
20696;BME280;10507;52.754;13.040;2023-01-28T04:51:38;101196.34;;;0.51;92.47
20696;BME280;10507;52.754;13.040;2023-01-28T04:54:06;101202.50;;;0.50;92.74
20696;BME280;10507;52.754;13.040;2023-01-28T04:56:34;101238.38;;;0.49;93.25
20696;BME280;10507;52.754;13.040;2023-01-28T04:59:03;101261.16;;;0.50;93.61
20696;BME280;10507;52.754;13.040;2023-01-28T05:01:31;101241.00;;;0.37;94.00
20696;BME280;10507;52.754;13.040;2023-01-28T05:03:59;101269.06;;;0.47;92.84
20696;BME280;10507;52.754;13.040;2023-01-28T05:06:31;101177.97;;;0.48;91.90
20696;BME280;10507;52.754;13.040;2023-01-28T05:08:58;101093.03;;;0.52;90.87
20696;BME280;10507;52.754;13.040;2023-01-28T05:11:26;101018.59;;;0.53;90.60
20696;BME280;10507;52.754;13.040;2023-01-28T05:13:54;101007.22;;;0.57;90.29
20696;BME280;10507;52.754;13.040;2023-01-28T05:16:23;100967.78;;;0.60;89.99
20696;BME280;10507;52.754;13.040;2023-01-28T05:18:51;100963.38;;;0.68;89.34
20696;BME280;10507;52.754;13.040;2023-01-28T05:21:19;100928.38;;;0.63;89.80
20696;BME280;10507;52.754;13.040;2023-01-28T05:23:47;100906.47;;;0.62;89.47
20696;BME280;10507;52.754;13.040;2023-01-28T05:26:19;100902.97;;;0.60;89.22
20696;BME280;10507;52.754;13.040;2023-01-28T05:28:46;100982.66;;;0.64;90.02
20696;BME280;10507;52.754;13.040;2023-01-28T05:31:14;101085.13;;;0.62;91.30
20696;BME280;10507;52.754;13.040;2023-01-28T05:33:43;101138.56;;;0.66;91.98
20696;BME280;10507;52.754;13.040;2023-01-28T05:36:11;101072.00;;;0.55;91.20
20696;BME280;10507;52.754;13.040;2023-01-28T05:38:39;101111.44;;;0.56;92.09
20696;BME280;10507;52.754;13.040;2023-01-28T05:41:07;101210.38;;;0.62;93.11
20696;BME280;10507;52.754;13.040;2023-01-28T05:43:35;101220.88;;;0.62;92.77
20696;BME280;10507;52.754;13.040;2023-01-28T05:46:04;101179.69;;;0.67;92.04
20696;BME280;10507;52.754;13.040;2023-01-28T05:48:32;101190.25;;;0.66;92.83
20696;BME280;10507;52.754;13.040;2023-01-28T05:51:02;101201.63;;;0.66;92.42
20696;BME280;10507;52.754;13.040;2023-01-28T05:53:31;101251.56;;;0.72;92.88
20696;BME280;10507;52.754;13.040;2023-01-28T05:55:59;101205.13;;;0.73;92.21
20696;BME280;10507;52.754;13.040;2023-01-28T05:58:26;101106.16;;;0.59;92.45
20696;BME280;10507;52.754;13.040;2023-01-28T06:00:57;101173.56;;;0.60;92.63
20696;BME280;10507;52.754;13.040;2023-01-28T06:03:25;101211.25;;;0.66;93.28
20696;BME280;10507;52.754;13.040;2023-01-28T06:05:53;101238.41;;;0.63;93.00
20696;BME280;10507;52.754;13.040;2023-01-28T06:08:23;101263.81;;;0.66;93.08
20696;BME280;10507;52.754;13.040;2023-01-28T06:10:51;101203.34;;;0.69;92.37
20696;BME280;10507;52.754;13.040;2023-01-28T06:13:18;101262.06;;;0.75;93.36
20696;BME280;10507;52.754;13.040;2023-01-28T06:15:48;101238.41;;;0.72;93.55
20696;BME280;10507;52.754;13.040;2023-01-28T06:18:16;101227.88;;;0.66;93.38
20696;BME280;10507;52.754;13.040;2023-01-28T06:20:44;101195.47;;;0.62;92.94
20696;BME280;10507;52.754;13.040;2023-01-28T06:23:12;101218.22;;;0.85;90.97
20696;BME280;10507;52.754;13.040;2023-01-28T06:25:41;101054.38;;;0.92;89.22
20696;BME280;10507;52.754;13.040;2023-01-28T06:28:09;100934.34;;;0.93;88.89
20696;BME280;10507;52.754;13.040;2023-01-28T06:30:37;100946.63;;;0.85;90.05
20696;BME280;10507;52.754;13.040;2023-01-28T06:33:05;100871.34;;;0.77;89.10
20696;BME280;10507;52.754;13.040;2023-01-28T06:35:34;100851.22;;;0.73;89.02
20696;BME280;10507;52.754;13.040;2023-01-28T06:38:02;100851.22;;;0.73;89.17
20696;BME280;10507;52.754;13.040;2023-01-28T06:40:33;100888.88;;;0.75;89.08
20696;BME280;10507;52.754;13.040;2023-01-28T06:43:02;100959.81;;;0.78;89.86
20696;BME280;10507;52.754;13.040;2023-01-28T06:45:31;101048.28;;;0.82;90.89
20696;BME280;10507;52.754;13.040;2023-01-28T06:47:59;101012.38;;;0.81;89.54
20696;BME280;10507;52.754;13.040;2023-01-28T06:50:27;101015.00;;;0.80;90.61
20696;BME280;10507;52.754;13.040;2023-01-28T06:52:55;101055.31;;;0.79;91.11
20696;BME280;10507;52.754;13.040;2023-01-28T06:55:22;101075.44;;;0.78;90.97
20696;BME280;10507;52.754;13.040;2023-01-28T06:57:50;101125.41;;;0.77;91.67
20696;BME280;10507;52.754;13.040;2023-01-28T07:00:20;101187.59;;;0.86;92.19
20696;BME280;10507;52.754;13.040;2023-01-28T07:02:48;101128.00;;;0.85;91.45
20696;BME280;10507;52.754;13.040;2023-01-28T07:05:16;101155.16;;;0.80;92.02
20696;BME280;10507;52.754;13.040;2023-01-28T07:07:44;101212.13;;;0.77;92.86
20696;BME280;10507;52.754;13.040;2023-01-28T07:10:12;101275.19;;;0.85;92.57
20696;BME280;10507;52.754;13.040;2023-01-28T07:12:40;101313.75;;;0.89;93.06
20696;BME280;10507;52.754;13.040;2023-01-28T07:15:11;101256.78;;;0.85;92.80
20696;BME280;10507;52.754;13.040;2023-01-28T07:17:42;101251.53;;;0.81;93.27
20696;BME280;10507;52.754;13.040;2023-01-28T07:20:12;101265.56;;;0.79;93.68
20696;BME280;10507;52.754;13.040;2023-01-28T07:22:42;101305.84;;;0.73;94.55
20696;BME280;10507;52.754;13.040;2023-01-28T07:25:11;101357.56;;;0.74;94.85
20696;BME280;10507;52.754;13.040;2023-01-28T07:27:47;101427.63;;;0.80;95.39
20696;BME280;10507;52.754;13.040;2023-01-28T07:30:17;101431.16;;;0.82;95.34
20696;BME280;10507;52.754;13.040;2023-01-28T07:32:52;101332.13;;;0.87;93.47
20696;BME280;10507;52.754;13.040;2023-01-28T07:35:20;101321.66;;;0.95;93.24
20696;BME280;10507;52.754;13.040;2023-01-28T07:37:51;101338.31;;;0.97;93.32
20696;BME280;10507;52.754;13.040;2023-01-28T07:40:20;101254.16;;;0.97;92.41
20696;BME280;10507;52.754;13.040;2023-01-28T07:42:48;101113.06;;;1.02;90.50
20696;BME280;10507;52.754;13.040;2023-01-28T07:45:16;101035.06;;;1.06;90.12
20696;BME280;10507;52.754;13.040;2023-01-28T07:47:44;101131.44;;;1.11;91.51
20696;BME280;10507;52.754;13.040;2023-01-28T07:50:13;101156.00;;;1.04;91.88
20696;BME280;10507;52.754;13.040;2023-01-28T07:52:42;101240.13;;;1.10;92.70
20696;BME280;10507;52.754;13.040;2023-01-28T07:55:11;101199.84;;;0.99;92.71
20696;BME280;10507;52.754;13.040;2023-01-28T07:57:48;101243.66;;;1.06;92.67
20696;BME280;10507;52.754;13.040;2023-01-28T08:00:17;101312.00;;;1.12;93.12
20696;BME280;10507;52.754;13.040;2023-01-28T08:02:45;101305.84;;;1.12;93.45
20696;BME280;10507;52.754;13.040;2023-01-28T08:05:17;101406.66;;;1.15;94.38
20696;BME280;10507;52.754;13.040;2023-01-28T08:07:47;101441.75;;;1.22;94.48
20696;BME280;10507;52.754;13.040;2023-01-28T08:10:16;101441.75;;;1.20;94.74
20696;BME280;10507;52.754;13.040;2023-01-28T08:12:51;101451.38;;;1.18;94.88
20696;BME280;10507;52.754;13.040;2023-01-28T08:15:21;101468.06;;;1.23;94.69
20696;BME280;10507;52.754;13.040;2023-01-28T08:17:49;101475.94;;;1.27;95.01
20696;BME280;10507;52.754;13.040;2023-01-28T08:20:18;101451.41;;;1.21;95.22
20696;BME280;10507;52.754;13.040;2023-01-28T08:22:46;101463.66;;;1.19;95.39
20696;BME280;10507;52.754;13.040;2023-01-28T08:25:14;101483.84;;;1.23;95.47
20696;BME280;10507;52.754;13.040;2023-01-28T08:27:42;101477.69;;;1.21;95.77
20696;BME280;10507;52.754;13.040;2023-01-28T08:30:11;101489.94;;;1.21;95.69
20696;BME280;10507;52.754;13.040;2023-01-28T08:32:39;101524.19;;;1.38;95.07
20696;BME280;10507;52.754;13.040;2023-01-28T08:35:07;101460.19;;;1.42;94.21
20696;BME280;10507;52.754;13.040;2023-01-28T08:37:37;101403.19;;;1.30;94.84
20696;BME280;10507;52.754;13.040;2023-01-28T08:40:06;101378.63;;;1.23;94.11
20696;BME280;10507;52.754;13.040;2023-01-28T08:42:34;101364.59;;;1.34;93.88
20696;BME280;10507;52.754;13.040;2023-01-28T08:45:02;101327.75;;;1.34;93.48
20696;BME280;10507;52.754;13.040;2023-01-28T08:47:30;101333.03;;;1.46;92.18
20696;BME280;10507;52.754;13.040;2023-01-28T08:49:58;101293.53;;;1.54;91.99
20696;BME280;10507;52.754;13.040;2023-01-28T08:52:26;101249.66;;;1.56;91.74
20696;BME280;10507;52.754;13.040;2023-01-28T08:54:55;101097.09;;;1.48;89.99
20696;BME280;10507;52.754;13.040;2023-01-28T08:57:23;101012.91;;;1.47;89.27
20696;BME280;10507;52.754;13.040;2023-01-28T08:59:51;100940.13;;;1.44;88.34
20696;BME280;10507;52.754;13.040;2023-01-28T09:02:19;100894.56;;;1.39;88.30
20696;BME280;10507;52.754;13.040;2023-01-28T09:04:57;100999.75;;;1.45;89.17
20696;BME280;10507;52.754;13.040;2023-01-28T09:07:25;100969.84;;;1.55;87.64
20696;BME280;10507;52.754;13.040;2023-01-28T09:09:53;100999.59;;;1.66;88.05
20696;BME280;10507;52.754;13.040;2023-01-28T09:12:22;101064.41;;;1.80;88.17
20696;BME280;10507;52.754;13.040;2023-01-28T09:14:50;101071.41;;;1.81;88.42
20696;BME280;10507;52.754;13.040;2023-01-28T09:17:18;101057.34;;;1.83;88.47
20696;BME280;10507;52.754;13.040;2023-01-28T09:19:46;101048.59;;;1.83;88.27
20696;BME280;10507;52.754;13.040;2023-01-28T09:22:14;101069.63;;;1.87;88.36
20696;BME280;10507;52.754;13.040;2023-01-28T09:24:42;101130.13;;;1.95;89.03
20696;BME280;10507;52.754;13.040;2023-01-28T09:27:10;101125.69;;;2.02;88.33
20696;BME280;10507;52.754;13.040;2023-01-28T09:29:40;101109.88;;;2.06;87.76
20696;BME280;10507;52.754;13.040;2023-01-28T09:32:09;101082.59;;;2.11;88.20
20696;BME280;10507;52.754;13.040;2023-01-28T09:34:43;100958.84;;;2.07;86.60
20696;BME280;10507;52.754;13.040;2023-01-28T09:37:14;100874.63;;;2.01;86.31
20696;BME280;10507;52.754;13.040;2023-01-28T09:39:43;100960.56;;;2.12;86.65
20696;BME280;10507;52.754;13.040;2023-01-28T09:42:24;101046.53;;;2.19;87.43
20696;BME280;10507;52.754;13.040;2023-01-28T09:45:03;101080.69;;;2.29;87.13
20696;BME280;10507;52.754;13.040;2023-01-28T09:47:37;101051.66;;;2.36;86.30
20696;BME280;10507;52.754;13.040;2023-01-28T09:50:10;100953.22;;;2.41;84.97
20696;BME280;10507;52.754;13.040;2023-01-28T09:52:41;100954.97;;;2.42;85.29
20696;BME280;10507;52.754;13.040;2023-01-28T09:55:18;100919.88;;;2.37;85.66
20696;BME280;10507;52.754;13.040;2023-01-28T09:57:50;100784.72;;;2.31;83.92
20696;BME280;10507;52.754;13.040;2023-01-28T10:00:23;100903.06;;;2.49;84.63
20696;BME280;10507;52.754;13.040;2023-01-28T10:03:07;100967.06;;;2.59;85.02
20696;BME280;10507;52.754;13.040;2023-01-28T10:05:44;100881.06;;;2.52;84.71
20696;BME280;10507;52.754;13.040;2023-01-28T10:08:26;100904.63;;;2.64;84.28
20696;BME280;10507;52.754;13.040;2023-01-28T10:11:04;100867.69;;;2.67;83.96
20696;BME280;10507;52.754;13.040;2023-01-28T10:13:42;100798.41;;;2.57;83.97
20696;BME280;10507;52.754;13.040;2023-01-28T10:16:19;100848.22;;;2.76;83.52
20696;BME280;10507;52.754;13.040;2023-01-28T10:18:55;100621.81;;;2.57;82.32
20696;BME280;10507;52.754;13.040;2023-01-28T10:21:26;100649.84;;;2.63;81.75
20696;BME280;10507;52.754;13.040;2023-01-28T10:24:00;100741.03;;;2.75;82.06
20696;BME280;10507;52.754;13.040;2023-01-28T10:26:32;100732.19;;;2.79;82.10
20696;BME280;10507;52.754;13.040;2023-01-28T10:29:08;100596.19;;;2.67;81.94
20696;BME280;10507;52.754;13.040;2023-01-28T10:31:44;100633.03;;;2.70;81.54
20696;BME280;10507;52.754;13.040;2023-01-28T10:34:17;100717.19;;;2.81;81.85
20696;BME280;10507;52.754;13.040;2023-01-28T10:36:46;100634.75;;;2.71;81.74
20696;BME280;10507;52.754;13.040;2023-01-28T10:39:16;100692.66;;;2.76;82.40
20696;BME280;10507;52.754;13.040;2023-01-28T10:41:44;100705.97;;;2.69;82.81
20696;BME280;10507;52.754;13.040;2023-01-28T10:44:29;100712.16;;;2.67;82.94
20696;BME280;10507;52.754;13.040;2023-01-28T10:47:02;100685.84;;;2.64;82.58
20696;BME280;10507;52.754;13.040;2023-01-28T10:49:38;100668.34;;;2.60;82.95
20696;BME280;10507;52.754;13.040;2023-01-28T10:52:12;100629.91;;;2.46;82.94
20696;BME280;10507;52.754;13.040;2023-01-28T10:54:40;100770.25;;;2.59;83.32
20696;BME280;10507;52.754;13.040;2023-01-28T10:57:10;100786.09;;;2.58;83.91
20696;BME280;10507;52.754;13.040;2023-01-28T10:59:40;100708.00;;;2.54;82.80
20696;BME280;10507;52.754;13.040;2023-01-28T11:02:28;100569.00;;;2.65;80.80
20696;BME280;10507;52.754;13.040;2023-01-28T11:05:06;100511.03;;;2.62;80.78
20696;BME280;10507;52.754;13.040;2023-01-28T11:07:40;100523.25;;;2.66;80.31
20696;BME280;10507;52.754;13.040;2023-01-28T11:10:24;100611.94;;;2.70;81.31
20696;BME280;10507;52.754;13.040;2023-01-28T11:12:57;100608.44;;;2.69;81.54
20696;BME280;10507;52.754;13.040;2023-01-28T11:15:26;100534.84;;;2.59;81.37
20696;BME280;10507;52.754;13.040;2023-01-28T11:17:57;100550.94;;;2.43;82.22
20696;BME280;10507;52.754;13.040;2023-01-28T11:20:29;100529.91;;;2.40;82.25
20696;BME280;10507;52.754;13.040;2023-01-28T11:22:58;100557.09;;;2.42;82.33
20696;BME280;10507;52.754;13.040;2023-01-28T11:25:28;100689.56;;;2.50;83.00
20696;BME280;10507;52.754;13.040;2023-01-28T11:27:58;100522.78;;;2.45;81.30
20696;BME280;10507;52.754;13.040;2023-01-28T11:30:29;100419.25;;;2.40;80.67
20696;BME280;10507;52.754;13.040;2023-01-28T11:33:04;100419.94;;;2.50;80.04
20696;BME280;10507;52.754;13.040;2023-01-28T11:35:34;100314.56;;;2.48;79.38
20696;BME280;10507;52.754;13.040;2023-01-28T11:38:15;100275.31;;;2.36;79.46
20696;BME280;10507;52.754;13.040;2023-01-28T11:40:48;100237.53;;;2.37;78.99
20696;BME280;10507;52.754;13.040;2023-01-28T11:43:17;100276.16;;;2.38;79.19
20696;BME280;10507;52.754;13.040;2023-01-28T11:45:51;100333.19;;;2.39;79.93
20696;BME280;10507;52.754;13.040;2023-01-28T11:48:33;100440.94;;;2.53;80.02
20696;BME280;10507;52.754;13.040;2023-01-28T11:51:17;100326.94;;;2.45;78.85
20696;BME280;10507;52.754;13.040;2023-01-28T11:54:04;100332.75;;;2.59;78.85
20696;BME280;10507;52.754;13.040;2023-01-28T11:56:46;100334.47;;;2.62;78.45
20696;BME280;10507;52.754;13.040;2023-01-28T11:59:30;100247.56;;;2.59;78.46
20696;BME280;10507;52.754;13.040;2023-01-28T12:02:12;100260.00;;;2.54;78.97
20696;BME280;10507;52.754;13.040;2023-01-28T12:04:57;100318.72;;;2.59;78.93
20696;BME280;10507;52.754;13.040;2023-01-28T12:07:34;100320.41;;;2.63;78.27
20696;BME280;10507;52.754;13.040;2023-01-28T12:10:13;100314.41;;;2.56;78.58
20696;BME280;10507;52.754;13.040;2023-01-28T12:12:57;100338.75;;;2.66;78.48
20696;BME280;10507;52.754;13.040;2023-01-28T12:19:13;100277.09;;;2.73;77.79
20696;BME280;10507;52.754;13.040;2023-01-28T12:21:56;100138.50;;;2.64;77.53
20696;BME280;10507;52.754;13.040;2023-01-28T12:24:40;100109.72;;;2.57;77.36
20696;BME280;10507;52.754;13.040;2023-01-28T12:27:25;100285.00;;;2.73;77.67
20696;BME280;10507;52.754;13.040;2023-01-28T12:30:05;100336.94;;;2.69;78.78
20696;BME280;10507;52.754;13.040;2023-01-28T12:32:51;100267.59;;;2.66;78.11
20696;BME280;10507;52.754;13.040;2023-01-28T12:35:28;100226.50;;;2.59;78.43
20696;BME280;10507;52.754;13.040;2023-01-28T12:38:07;100306.44;;;2.58;78.85
20696;BME280;10507;52.754;13.040;2023-01-28T12:40:48;100295.34;;;2.43;80.08
20696;BME280;10507;52.754;13.040;2023-01-28T12:43:22;100386.69;;;2.44;80.84
20696;BME280;10507;52.754;13.040;2023-01-28T12:45:55;100458.53;;;2.51;81.13
20696;BME280;10507;52.754;13.040;2023-01-28T12:48:28;100457.72;;;2.49;80.72
20696;BME280;10507;52.754;13.040;2023-01-28T12:51:02;100500.69;;;2.53;81.10
20696;BME280;10507;52.754;13.040;2023-01-28T12:53:38;100484.88;;;2.53;81.05
20696;BME280;10507;52.754;13.040;2023-01-28T12:56:12;100469.81;;;2.58;81.11
20696;BME280;10507;52.754;13.040;2023-01-28T12:58:46;100345.19;;;2.54;79.72
20696;BME280;10507;52.754;13.040;2023-01-28T13:01:20;100380.84;;;2.69;79.62
20696;BME280;10507;52.754;13.040;2023-01-28T13:03:55;100421.22;;;2.71;80.31
20696;BME280;10507;52.754;13.040;2023-01-28T13:06:29;100465.84;;;2.80;80.19
20696;BME280;10507;52.754;13.040;2023-01-28T13:09:08;100407.84;;;2.80;79.76
20696;BME280;10507;52.754;13.040;2023-01-28T13:11:38;100421.88;;;2.82;80.12
20696;BME280;10507;52.754;13.040;2023-01-28T13:14:08;100370.94;;;2.80;79.63
20696;BME280;10507;52.754;13.040;2023-01-28T13:16:38;100340.91;;;2.87;78.92